Time,TemperatureF,DewpointF,PressureIn,WindDirection,WindDirectionDegrees,WindSpeedMPH,WindSpeedGustMPH,Humidity,HourlyPrecipIn,Conditions,Clouds,dailyrainin,SoftwareType,DateUTC
2013-10-21 00:05:00,51.7,49.0,29.95,SSW,207,0.0,-999.0,91,-99.99,,,0.00,weatherlink.com 1.10,2013-10-21 07:05:00,
2013-10-21 00:20:00,51.6,49.0,29.95,SSW,207,0.0,-999.0,92,-99.99,,,0.00,weatherlink.com 1.10,2013-10-21 07:20:00,
2013-10-21 00:35:00,51.6,49.0,29.95,SSW,207,0.0,-999.0,92,-99.99,,,0.00,weatherlink.com 1.10,2013-10-21 07:35:00,
2013-10-21 00:50:00,51.6,49.0,29.95,SSW,207,0.0,-999.0,92,-99.99,,,0.00,weatherlink.com 1.10,2013-10-21 07:50:00,
2013-10-21 01:05:00,51.4,49.0,29.95,SSW,207,0.0,-999.0,92,-99.99,,,0.00,weatherlink.com 1.10,2013-10-21 08:05:00,
2013-10-21 01:20:00,51.3,49.0,29.95,SSW,207,0.0,-999.0,92,-99.99,,,0.00,weatherlink.com 1.10,2013-10-21 08:20:00,
2013-10-21 01:35:00,51.3,49.0,29.95,SW,214,0.0,-999.0,92,-99.99,,,0.00,weatherlink.com 1.10,2013-10-21 08:35:00,
2013-10-21 01:50:00,51.3,49.0,29.95,SW,214,0.0,-999.0,92,-99.99,,,0.00,weatherlink.com 1.10,2013-10-21 08:50:00,
2013-10-21 02:05:00,51.3,49.0,29.95,South,190,0.0,-999.0,92,-99.99,,,0.00,weatherlink.com 1.10,2013-10-21 09:05:00,
2013-10-21 02:20:00,51.3,49.0,29.96,South,190,0.0,-999.0,92,-99.99,,,0.00,weatherlink.com 1.10,2013-10-21 09:20:00,
2013-10-21 02:35:00,51.3,49.0,29.96,SSW,207,0.0,-999.0,92,-99.99,,,0.00,weatherlink.com 1.10,2013-10-21 09:35:00,
2013-10-21 02:50:00,51.1,49.0,29.96,SW,215,0.0,-999.0,92,-99.99,,,0.00,weatherlink.com 1.10,2013-10-21 09:50:00,
2013-10-21 03:05:00,51.1,49.0,29.96,SW,222,0.0,-999.0,92,-99.99,,,0.00,weatherlink.com 1.10,2013-10-21 10:05:00,
2013-10-21 03:20:00,51.0,49.0,29.96,SE,144,0.0,-999.0,92,-99.99,,,0.00,weatherlink.com 1.10,2013-10-21 10:20:00,
2013-10-21 03:35:00,51.0,49.0,29.95,SW,235,0.0,-999.0,92,-99.99,,,0.00,weatherlink.com 1.10,2013-10-21 10:35:00,
2013-10-21 03:50:00,50.8,49.0,29.95,SW,232,0.0,-999.0,92,-99.99,,,0.00,weatherlink.com 1.10,2013-10-21 10:50:00,
2013-10-21 04:05:00,50.7,49.0,29.95,ESE,104,0.0,-999.0,92,-99.99,,,0.00,weatherlink.com 1.10,2013-10-21 11:05:00,
2013-10-21 04:20:00,50.7,49.0,29.95,SE,134,0.0,-999.0,92,-99.99,,,0.00,weatherlink.com 1.10,2013-10-21 11:20:00,
2013-10-21 04:35:00,50.7,49.0,29.95,SE,145,0.0,-999.0,92,-99.99,,,0.00,weatherlink.com 1.10,2013-10-21 11:35:00,
2013-10-21 04:50:00,50.7,49.0,29.95,SE,135,0.0,-999.0,92,-99.99,,,0.00,weatherlink.com 1.10,2013-10-21 11:50:00,
2013-10-21 05:05:00,50.7,49.0,29.95,SW,220,0.0,-999.0,92,-99.99,,,0.00,weatherlink.com 1.10,2013-10-21 12:05:00,
2013-10-21 05:20:00,50.8,49.0,29.95,SW,220,0.0,-999.0,92,-99.99,,,0.00,weatherlink.com 1.10,2013-10-21 12:20:00,
2013-10-21 05:35:00,50.8,49.0,29.95,SSE,165,0.0,-999.0,92,-99.99,,,0.00,weatherlink.com 1.10,2013-10-21 12:35:00,
2013-10-21 05:50:00,50.8,49.0,29.95,SSE,163,0.0,-999.0,92,-99.99,,,0.00,weatherlink.com 1.10,2013-10-21 12:50:00,
2013-10-21 06:05:00,50.8,49.0,29.96,SSE,163,0.0,-999.0,92,-99.99,,,0.00,weatherlink.com 1.10,2013-10-21 13:05:00,
2013-10-21 06:20:00,51.0,49.0,29.96,SSE,161,0.0,-999.0,92,-99.99,,,0.00,weatherlink.com 1.10,2013-10-21 13:20:00,
2013-10-21 06:35:00,51.0,49.0,29.96,South,184,0.0,-999.0,91,-99.99,,,0.00,weatherlink.com 1.10,2013-10-21 13:35:00,
2013-10-21 06:50:00,50.8,48.0,29.96,East,86,0.0,-999.0,91,-99.99,,,0.00,weatherlink.com 1.10,2013-10-21 13:50:00,
2013-10-21 07:05:00,51.0,49.0,29.96,ESE,102,0.0,-999.0,91,-99.99,,,0.00,weatherlink.com 1.10,2013-10-21 14:05:00,
2013-10-21 07:20:00,51.0,49.0,29.96,SE,128,0.0,-999.0,91,-99.99,,,0.00,weatherlink.com 1.10,2013-10-21 14:20:00,
2013-10-21 07:35:00,51.0,49.0,29.96,SE,134,0.0,-999.0,91,-99.99,,,0.00,weatherlink.com 1.10,2013-10-21 14:35:00,
2013-10-21 07:50:00,51.1,49.0,29.97,SSW,196,0.0,-999.0,91,-99.99,,,0.00,weatherlink.com 1.10,2013-10-21 14:50:00,
2013-10-21 08:05:00,51.1,49.0,29.97,SSW,196,0.0,-999.0,91,-99.99,,,0.00,weatherlink.com 1.10,2013-10-21 15:05:00,
2013-10-21 08:20:00,51.3,49.0,29.98,SE,144,0.0,-999.0,91,-99.99,,,0.00,weatherlink.com 1.10,2013-10-21 15:20:00,
2013-10-21 08:35:00,51.4,49.0,29.98,SE,139,0.0,-999.0,91,-99.99,,,0.00,weatherlink.com 1.10,2013-10-21 15:35:00,
2013-10-21 08:50:00,51.7,49.0,29.98,SE,136,0.0,-999.0,90,-99.99,,,0.00,weatherlink.com 1.10,2013-10-21 15:50:00,
2013-10-21 09:05:00,51.9,49.0,29.99,SSE,151,0.0,-999.0,89,-99.99,,,0.00,weatherlink.com 1.10,2013-10-21 16:05:00,
2013-10-21 09:20:00,52.2,49.0,30.00,South,169,0.0,-999.0,88,-99.99,,,0.00,weatherlink.com 1.10,2013-10-21 16:20:00,
2013-10-21 09:35:00,52.6,49.0,30.00,East,92,0.0,-999.0,87,-99.99,,,0.00,weatherlink.com 1.10,2013-10-21 16:35:00,
2013-10-21 09:50:00,53.3,49.0,30.00,SSW,200,0.0,-999.0,86,-99.99,,,0.00,weatherlink.com 1.10,2013-10-21 16:50:00,
2013-10-21 10:05:00,53.9,50.0,30.00,ESE,113,0.0,-999.0,85,-99.99,,,0.00,weatherlink.com 1.10,2013-10-21 17:05:00,
2013-10-21 10:20:00,55.0,50.0,30.00,SE,130,0.0,-999.0,82,-99.99,,,0.00,weatherlink.com 1.10,2013-10-21 17:20:00,
2013-10-21 10:35:00,56.7,50.0,30.00,SE,144,0.0,-999.0,78,-99.99,,,0.00,weatherlink.com 1.10,2013-10-21 17:35:00,
2013-10-21 10:50:00,58.6,50.0,30.00,SSE,168,0.0,-999.0,73,-99.99,,,0.00,weatherlink.com 1.10,2013-10-21 17:50:00,
2013-10-21 11:06:00,60.2,50.0,29.99,SSW,211,0.0,-999.0,69,-99.99,,,0.00,weatherlink.com 1.10,2013-10-21 18:06:00,
2013-10-21 11:20:00,60.5,50.0,29.99,NW,319,0.0,-999.0,69,-99.99,,,0.00,weatherlink.com 1.10,2013-10-21 18:20:00,
2013-10-21 11:35:00,61.2,50.0,29.99,SSW,205,0.0,-999.0,68,-99.99,,,0.00,weatherlink.com 1.10,2013-10-21 18:35:00,
2013-10-21 11:50:00,61.3,50.0,29.98,WSW,244,0.0,-999.0,66,-99.99,,,0.00,weatherlink.com 1.10,2013-10-21 18:50:00,
2013-10-21 12:05:00,61.5,50.0,29.98,SSE,161,0.0,-999.0,66,-99.99,,,0.00,weatherlink.com 1.10,2013-10-21 19:05:00,
2013-10-21 12:20:00,62.6,51.0,29.98,WSW,249,0.0,-999.0,65,-99.99,,,0.00,weatherlink.com 1.10,2013-10-21 19:20:00,
2013-10-21 12:35:00,62.7,50.0,29.97,WSW,255,0.0,-999.0,64,-99.99,,,0.00,weatherlink.com 1.10,2013-10-21 19:35:00,
2013-10-21 12:50:00,62.9,51.0,29.97,West,279,0.0,-999.0,65,-99.99,,,0.00,weatherlink.com 1.10,2013-10-21 19:50:00,
2013-10-21 13:06:00,63.5,51.0,29.96,SW,234,0.0,-999.0,63,-99.99,,,0.00,weatherlink.com 1.10,2013-10-21 20:06:00,
2013-10-21 13:21:00,63.1,50.0,29.96,WSW,241,0.0,-999.0,63,-99.99,,,0.00,weatherlink.com 1.10,2013-10-21 20:21:00,
2013-10-21 13:36:00,62.7,50.0,29.95,WSW,237,0.0,-999.0,64,-99.99,,,0.00,weatherlink.com 1.10,2013-10-21 20:36:00,
2013-10-21 13:51:00,62.9,50.0,29.95,WSW,253,0.0,-999.0,63,-99.99,,,0.00,weatherlink.com 1.10,2013-10-21 20:51:00,
2013-10-21 14:06:00,62.7,49.0,29.94,SW,234,0.0,-999.0,62,-99.99,,,0.00,weatherlink.com 1.10,2013-10-21 21:06:00,
2013-10-21 14:21:00,63.1,51.0,29.94,WSW,258,0.0,-999.0,64,-99.99,,,0.00,weatherlink.com 1.10,2013-10-21 21:21:00,
2013-10-21 14:36:00,62.6,50.0,29.93,WSW,244,0.0,-999.0,64,-99.99,,,0.00,weatherlink.com 1.10,2013-10-21 21:36:00,
2013-10-21 14:51:00,62.7,50.0,29.93,West,277,0.0,-999.0,63,-99.99,,,0.00,weatherlink.com 1.10,2013-10-21 21:51:00,
2013-10-21 15:06:00,62.9,50.0,29.93,West,273,0.0,-999.0,63,-99.99,,,0.00,weatherlink.com 1.10,2013-10-21 22:06:00,
2013-10-21 15:21:00,63.2,50.0,29.93,SW,226,0.0,-999.0,63,-99.99,,,0.00,weatherlink.com 1.10,2013-10-21 22:21:00,
2013-10-21 15:37:00,62.6,50.0,29.93,SW,227,0.0,-999.0,63,-99.99,,,0.00,weatherlink.com 1.10,2013-10-21 22:37:00,
2013-10-21 15:52:00,62.3,50.0,29.93,SW,236,0.0,-999.0,64,-99.99,,,0.00,weatherlink.com 1.10,2013-10-21 22:52:00,
2013-10-21 16:06:00,62.1,50.0,29.93,SSW,205,0.0,-999.0,65,-99.99,,,0.00,weatherlink.com 1.10,2013-10-21 23:06:00,
2013-10-21 16:22:00,62.1,50.0,29.93,SW,222,0.0,-999.0,64,-99.99,,,0.00,weatherlink.com 1.10,2013-10-21 23:22:00,
2013-10-21 16:36:00,61.8,51.0,29.93,SW,233,0.0,-999.0,67,-99.99,,,0.00,weatherlink.com 1.10,2013-10-21 23:36:00,
2013-10-21 16:51:00,61.6,51.0,29.92,SW,236,0.0,-999.0,68,-99.99,,,0.00,weatherlink.com 1.10,2013-10-21 23:51:00,
2013-10-21 17:06:00,60.9,50.0,29.92,WSW,242,0.0,-999.0,68,-99.99,,,0.00,weatherlink.com 1.10,2013-10-22 00:06:00,
2013-10-21 17:22:00,59.9,50.0,29.92,WSW,242,0.0,-999.0,70,-99.99,,,0.00,weatherlink.com 1.10,2013-10-22 00:22:00,
2013-10-21 17:37:00,58.3,50.0,29.92,WSW,242,0.0,-999.0,74,-99.99,,,0.00,weatherlink.com 1.10,2013-10-22 00:37:00,
2013-10-21 17:52:00,56.9,50.0,29.92,SW,234,0.0,-999.0,78,-99.99,,,0.00,weatherlink.com 1.10,2013-10-22 00:52:00,
2013-10-21 18:07:00,55.7,50.0,29.93,SW,234,0.0,-999.0,80,-99.99,,,0.00,weatherlink.com 1.10,2013-10-22 01:07:00,
2013-10-21 18:22:00,54.7,50.0,29.93,SSW,207,0.0,-999.0,83,-99.99,,,0.00,weatherlink.com 1.10,2013-10-22 01:22:00,
2013-10-21 18:37:00,53.9,50.0,29.93,SSW,207,0.0,-999.0,85,-99.99,,,0.00,weatherlink.com 1.10,2013-10-22 01:37:00,
2013-10-21 18:53:00,53.8,50.0,29.94,SSW,207,0.0,-999.0,86,-99.99,,,0.00,weatherlink.com 1.10,2013-10-22 01:53:00,
2013-10-21 19:07:00,53.6,50.0,29.94,SSW,207,0.0,-999.0,87,-99.99,,,0.00,weatherlink.com 1.10,2013-10-22 02:07:00,
2013-10-21 19:22:00,53.6,50.0,29.94,SSW,207,0.0,-999.0,87,-99.99,,,0.00,weatherlink.com 1.10,2013-10-22 02:22:00,
2013-10-21 19:37:00,53.3,50.0,29.95,SSW,207,0.0,-999.0,88,-99.99,,,0.00,weatherlink.com 1.10,2013-10-22 02:37:00,
2013-10-21 19:52:00,53.3,50.0,29.95,SSW,207,0.0,-999.0,89,-99.99,,,0.00,weatherlink.com 1.10,2013-10-22 02:52:00,
2013-10-21 20:07:00,53.3,50.0,29.95,SSW,207,0.0,-999.0,89,-99.99,,,0.00,weatherlink.com 1.10,2013-10-22 03:07:00,
2013-10-21 20:22:00,53.1,50.0,29.95,SSW,207,0.0,-999.0,89,-99.99,,,0.00,weatherlink.com 1.10,2013-10-22 03:22:00,
2013-10-21 20:37:00,53.1,50.0,29.95,SSW,207,0.0,-999.0,90,-99.99,,,0.00,weatherlink.com 1.10,2013-10-22 03:37:00,
2013-10-21 20:52:00,52.9,50.0,29.96,SSW,207,0.0,-999.0,90,-99.99,,,0.00,weatherlink.com 1.10,2013-10-22 03:52:00,
2013-10-21 21:07:00,52.8,50.0,29.96,SSW,207,0.0,-999.0,90,-99.99,,,0.00,weatherlink.com 1.10,2013-10-22 04:07:00,
2013-10-21 21:22:00,52.5,50.0,29.96,SSW,207,0.0,-999.0,90,-99.99,,,0.00,weatherlink.com 1.10,2013-10-22 04:22:00,
2013-10-21 21:37:00,52.5,50.0,29.97,SSW,207,0.0,-999.0,91,-99.99,,,0.00,weatherlink.com 1.10,2013-10-22 04:37:00,
2013-10-21 21:52:00,52.5,50.0,29.97,SSW,207,0.0,-999.0,91,-99.99,,,0.00,weatherlink.com 1.10,2013-10-22 04:52:00,
2013-10-21 22:07:00,52.5,50.0,29.98,SSW,207,0.0,-999.0,91,-99.99,,,0.00,weatherlink.com 1.10,2013-10-22 05:07:00,
2013-10-21 22:22:00,52.3,50.0,29.98,SSW,207,0.0,-999.0,91,-99.99,,,0.00,weatherlink.com 1.10,2013-10-22 05:22:00,
2013-10-21 22:37:00,52.0,50.0,29.98,SSW,207,0.0,-999.0,91,-99.99,,,0.00,weatherlink.com 1.10,2013-10-22 05:37:00,
2013-10-21 22:52:00,52.0,50.0,29.98,SSW,207,0.0,-999.0,92,-99.99,,,0.00,weatherlink.com 1.10,2013-10-22 05:52:00,
2013-10-21 23:07:00,51.7,50.0,29.98,SSW,207,0.0,-999.0,92,-99.99,,,0.00,weatherlink.com 1.10,2013-10-22 06:07:00,
2013-10-21 23:22:00,51.6,49.0,29.98,SSW,207,0.0,-999.0,92,-99.99,,,0.00,weatherlink.com 1.10,2013-10-22 06:22:00,
2013-10-21 23:37:00,51.6,49.0,29.98,SSW,207,0.0,-999.0,92,-99.99,,,0.00,weatherlink.com 1.10,2013-10-22 06:37:00,
2013-10-21 23:52:00,51.4,49.0,29.98,SSW,207,0.0,-999.0,92,-99.99,,,0.00,weatherlink.com 1.10,2013-10-22 06:52:00,